Time;durP1;ratioP1;P1;durP2;ratioP2;P2;SDS_P1;SDS_P2;PMS_P1;PMS_P2;Temp;Humidity;BMP_temperature;BMP_pressure;BME280_temperature;BME280_humidity;BME280_pressure;Samples;Min_cycle;Max_cycle;Signal;HPM_P1;HPM_P2
2021/04/06 00:01:41;;;;;;;60.70;40.10;;;3.80;80.80;;;;;;5052957;28;20497;-81
2021/04/06 00:04:10;;;;;;;75.47;50.40;;;3.80;80.80;;;;;;5053178;28;20031;-80
2021/04/06 00:06:39;;;;;;;95.43;59.47;;;3.70;80.80;;;;;;5053688;28;20364;-81
2021/04/06 00:09:08;;;;;;;68.43;44.67;;;3.70;81.20;;;;;;5054206;28;20379;-81
2021/04/06 00:11:36;;;;;;;58.83;36.75;;;3.70;81.30;;;;;;5052965;28;20083;-80
2021/04/06 00:14:04;;;;;;;39.95;24.80;;;3.60;81.70;;;;;;5052839;28;20033;-81
2021/04/06 00:16:31;;;;;;;30.00;17.60;;;3.60;81.90;;;;;;5054084;28;20033;-81
2021/04/06 00:18:58;;;;;;;24.63;13.25;;;3.60;82.20;;;;;;5052789;28;20131;-81
2021/04/06 00:21:25;;;;;;;23.95;12.32;;;3.60;82.00;;;;;;5052524;28;20395;-80
2021/04/06 00:23:53;;;;;;;25.73;13.65;;;3.60;81.90;;;;;;5053284;28;20108;-80
2021/04/06 00:26:18;;;;;;;25.10;13.02;;;3.60;81.80;;;;;;5051974;28;20105;-81
2021/04/06 00:28:45;;;;;;;21.40;11.90;;;3.60;82.10;;;;;;5053560;28;20104;-80
2021/04/06 00:31:12;;;;;;;21.40;10.88;;;3.60;82.70;;;;;;5053406;28;20104;-81
2021/04/06 00:33:44;;;;;;;18.10;9.77;;;3.60;83.30;;;;;;5052474;28;20495;-81
2021/04/06 00:36:10;;;;;;;16.75;10.15;;;3.70;83.60;;;;;;5053904;28;20087;-82
2021/04/06 00:38:42;;;;;;;18.98;9.18;;;3.70;83.30;;;;;;5053607;28;20368;-82
2021/04/06 00:41:13;;;;;;;14.07;8.93;;;3.70;84.30;;;;;;5032098;28;20109;-81
2021/04/06 00:43:40;;;;;;;;;;;3.80;83.70;;;;;;5046489;28;20033;-81
2021/04/06 00:46:11;;;;;;;14.93;9.15;;;3.80;85.00;;;;;;5052134;28;19928;-81
2021/04/06 00:48:41;;;;;;;20.23;10.85;;;3.80;84.60;;;;;;5051938;28;20517;-81
2021/04/06 00:51:16;;;;;;;17.42;10.57;;;3.80;85.80;;;;;;5051803;28;20032;-81
2021/04/06 00:54:02;;;;;;;16.27;10.80;;;3.80;85.70;;;;;;5051623;28;20483;-82
2021/04/06 00:56:32;;;;;;;19.73;11.57;;;3.80;86.80;;;;;;5051883;28;20033;-81
2021/04/06 00:59:01;;;;;;;14.68;10.20;;;3.80;86.80;;;;;;5051821;28;20028;-81
2021/04/06 01:02:07;;;;;;;16.45;9.52;;;3.80;86.70;;;;;;5053389;28;20021;-82
2021/04/06 01:04:36;;;;;;;17.83;10.55;;;3.80;87.00;;;;;;5047193;28;20063;-81
2021/04/06 01:07:12;;;;;;;20.52;12.27;;;3.80;87.30;;;;;;5051669;28;20470;-81
2021/04/06 01:09:53;;;;;;;23.77;13.38;;;3.80;88.20;;;;;;5051659;28;20025;-81
2021/04/06 01:12:24;;;;;;;21.98;12.48;;;3.70;88.50;;;;;;5051565;28;20462;-81
2021/04/06 01:14:52;;;;;;;26.88;15.73;;;3.70;87.80;;;;;;5051492;28;20037;-82
2021/04/06 01:17:27;;;;;;;32.72;16.70;;;3.60;88.60;;;;;;5052865;28;20033;-81
2021/04/06 01:19:53;;;;;;;27.25;15.63;;;3.60;89.30;;;;;;5054454;28;20029;-81
2021/04/06 01:22:19;;;;;;;29.40;17.65;;;3.70;88.30;;;;;;5056092;28;20025;-82
2021/04/06 01:24:46;;;;;;;23.90;15.35;;;3.60;89.40;;;;;;5055944;28;20379;-81
2021/04/06 01:27:17;;;;;;;27.83;16.13;;;3.60;89.10;;;;;;5056274;28;20029;-81
2021/04/06 01:29:56;;;;;;;25.40;15.82;;;3.60;89.20;;;;;;5055940;28;20119;-81
2021/04/06 01:32:28;;;;;;;23.75;15.45;;;3.50;89.90;;;;;;5055875;28;20036;-82
2021/04/06 01:34:54;;;;;;;17.42;12.15;;;3.50;90.00;;;;;;5056903;28;20025;-81
2021/04/06 01:37:22;;;;;;;21.25;13.82;;;3.50;89.00;;;;;;5055955;28;20130;-81
2021/04/06 01:39:51;;;;;;;17.38;11.55;;;3.50;89.90;;;;;;5055790;28;20017;-81
2021/04/06 01:42:18;;;;;;;17.90;10.60;;;3.50;90.00;;;;;;5057077;28;20013;-81
2021/04/06 01:44:47;;;;;;;19.42;10.95;;;3.50;89.80;;;;;;5056822;28;20601;-81
2021/04/06 01:47:16;;;;;;;18.50;11.05;;;3.50;90.00;;;;;;5055648;28;20033;-81
2021/04/06 01:49:43;;;;;;;18.65;12.30;;;3.40;90.10;;;;;;5055482;28;20032;-81
2021/04/06 01:52:09;;;;;;;20.27;11.95;;;3.40;90.20;;;;;;5055541;28;20036;-82
2021/04/06 01:54:37;;;;;;;17.92;11.50;;;3.40;90.30;;;;;;5055887;28;20043;-82
2021/04/06 01:57:12;;;;;;;17.73;11.13;;;3.40;90.00;;;;;;5056344;28;20045;-82
2021/04/06 01:59:53;;;;;;;18.35;12.35;;;3.40;90.30;;;;;;5055319;28;20490;-81
2021/04/06 02:02:35;;;;;;;17.80;12.45;;;3.30;90.90;;;;;;5055411;28;20031;-82
2021/04/06 02:05:02;;;;;;;21.15;11.70;;;3.30;90.90;;;;;;5055122;28;20025;-82
2021/04/06 02:07:33;;;;;;;19.60;12.30;;;3.30;90.80;;;;;;5055261;28;20178;-82
2021/04/06 02:09:59;;;;;;;;;;;3.20;91.00;;;;;;5056862;28;20386;-82
2021/04/06 02:12:25;;;;;;;19.92;13.10;;;3.20;91.70;;;;;;5055211;28;19951;-82
2021/04/06 02:14:58;;;;;;;18.08;12.90;;;3.20;91.20;;;;;;5055042;28;20033;-82
2021/04/06 02:17:24;;;;;;;18.60;12.52;;;3.20;91.40;;;;;;5055031;28;20029;-82
2021/04/06 02:19:50;;;;;;;32.95;15.52;;;3.20;91.20;;;;;;5055132;28;20029;-82
2021/04/06 02:22:18;;;;;;;25.08;14.52;;;3.20;91.80;;;;;;5054223;28;20017;-82
2021/04/06 02:24:52;;;;;;;24.23;15.50;;;3.10;91.70;;;;;;5054493;28;20379;-82
2021/04/06 02:27:19;;;;;;;24.80;15.05;;;3.10;92.40;;;;;;5055710;28;20490;-81
2021/04/06 02:29:52;;;;;;;23.67;13.40;;;3.10;91.90;;;;;;5055305;28;20029;-81
2021/04/06 02:32:19;;;;;;;22.50;14.65;;;3.10;91.80;;;;;;5056237;28;20057;-81
2021/04/06 02:34:51;;;;;;;24.55;15.38;;;3.10;91.80;;;;;;5055337;28;20024;-81
2021/04/06 02:37:22;;;;;;;21.95;14.52;;;3.10;91.70;;;;;;5054300;28;20025;-81
2021/04/06 02:39:49;;;;;;;22.70;14.32;;;3.10;92.00;;;;;;5054357;28;20083;-81
2021/04/06 02:42:25;;;;;;;22.85;14.18;;;3.10;92.00;;;;;;5054277;28;20040;-80
2021/04/06 02:45:00;;;;;;;22.92;15.18;;;3.10;91.90;;;;;;5055205;28;20106;-80
2021/04/06 02:47:27;;;;;;;20.00;13.82;;;3.00;92.10;;;;;;5055338;28;20029;-80
2021/04/06 02:49:55;;;;;;;24.35;14.30;;;3.00;92.10;;;;;;5053617;28;20029;-80
2021/04/06 02:52:21;;;;;;;23.77;15.27;;;3.10;92.10;;;;;;5053731;28;20021;-80
2021/04/06 02:54:47;;;;;;;21.08;14.20;;;3.00;92.20;;;;;;5052493;28;20075;-81
2021/04/06 02:57:23;;;;;;;23.17;15.95;;;3.00;92.10;;;;;;5052294;28;20056;-80
2021/04/06 02:59:49;;;;;;;30.33;17.75;;;3.00;92.60;;;;;;5053994;28;20052;-81
2021/04/06 03:02:15;;;;;;;22.00;14.35;;;3.00;92.70;;;;;;5052609;28;20060;-81
2021/04/06 03:04:43;;;;;;;22.75;14.77;;;2.90;92.30;;;;;;5052895;28;20021;-81
2021/04/06 03:07:22;;;;;;;24.55;15.63;;;3.00;92.40;;;;;;5053599;28;20128;-80
2021/04/06 03:10:07;;;;;;;24.97;15.97;;;2.90;92.80;;;;;;5053602;28;20030;-80
2021/04/06 03:12:32;;;;;;;24.52;13.88;;;2.90;92.90;;;;;;5053192;28;20059;-81
2021/04/06 03:15:03;;;;;;;26.13;15.43;;;2.90;92.20;;;;;;5053543;28;20048;-81
2021/04/06 03:17:43;;;;;;;;;;;2.90;92.40;;;;;;5053248;28;20570;-81
2021/04/06 03:20:12;;;;;;;26.30;14.85;;;2.90;93.30;;;;;;5053305;28;19944;-80
2021/04/06 03:22:39;;;;;;;25.75;16.33;;;2.90;92.70;;;;;;5054558;28;20032;-80
2021/04/06 03:25:06;;;;;;;25.73;16.10;;;2.90;92.80;;;;;;5054918;28;20374;-80
2021/04/06 03:27:33;;;;;;;26.45;17.25;;;2.90;93.10;;;;;;5053955;28;20089;-81
2021/04/06 03:30:01;;;;;;;25.42;17.02;;;2.80;93.10;;;;;;5053980;28;20383;-81
2021/04/06 03:32:27;;;;;;;28.98;18.95;;;2.80;93.00;;;;;;5054843;28;20538;-81
2021/04/06 03:34:53;;;;;;;30.65;18.30;;;2.90;93.20;;;;;;5053294;28;20056;-80
2021/04/06 03:37:21;;;;;;;29.70;18.60;;;2.90;93.30;;;;;;5087031;28;20025;-80
2021/04/06 03:39:47;;;;;;;30.15;19.05;;;2.90;93.30;;;;;;5054644;28;20025;-80
2021/04/06 03:42:24;;;;;;;26.95;17.88;;;2.90;93.70;;;;;;5052326;28;20471;-81
2021/04/06 03:44:51;;;;;;;27.70;16.52;;;2.90;93.40;;;;;;5053391;28;20470;-81
2021/04/06 03:47:17;;;;;;;28.50;18.48;;;2.90;93.50;;;;;;5054290;28;20028;-81
2021/04/06 03:49:49;;;;;;;34.85;19.23;;;2.90;93.70;;;;;;5053952;28;20029;-80
2021/04/06 03:52:16;;;;;;;32.72;19.58;;;2.90;93.60;;;;;;5054353;28;20413;-81
2021/04/06 03:54:47;;;;;;;35.80;20.17;;;2.90;93.40;;;;;;5052800;28;20482;-80
2021/04/06 04:00:12;;;;;;;30.80;18.83;;;3.00;93.90;;;;;;5054609;28;20025;-82
2021/04/06 04:02:38;;;;;;;33.80;19.70;;;3.00;93.70;;;;;;5054273;28;20486;-83
2021/04/06 04:05:04;;;;;;;30.08;16.65;;;3.00;93.80;;;;;;5054105;28;20025;-84
2021/04/06 04:07:33;;;;;;;26.58;16.73;;;3.00;93.80;;;;;;5053309;28;20051;-83
2021/04/06 04:09:58;;;;;;;28.80;18.10;;;3.10;93.80;;;;;;5053030;28;20039;-85
2021/04/06 04:12:24;;;;;;;29.15;17.55;;;3.10;93.70;;;;;;5052869;28;20112;-82
2021/04/06 04:14:50;;;;;;;31.85;17.92;;;3.20;93.50;;;;;;5053956;28;20024;-82
2021/04/06 04:17:16;;;;;;;30.73;18.70;;;3.20;93.80;;;;;;5052507;28;20029;-83
2021/04/06 04:19:43;;;;;;;27.70;18.08;;;3.20;94.30;;;;;;5052558;28;20463;-83
2021/04/06 04:22:08;;;;;;;30.08;18.95;;;3.20;94.30;;;;;;5062445;28;20035;-82
2021/04/06 04:24:34;;;;;;;35.97;18.65;;;3.20;94.10;;;;;;5061824;28;20375;-83
2021/04/06 04:27:00;;;;;;;33.47;19.05;;;3.30;94.20;;;;;;5052001;28;20379;-83
2021/04/06 04:29:26;;;;;;;28.75;18.08;;;3.30;94.20;;;;;;5052328;28;20036;-87
2021/04/06 04:31:52;;;;;;;30.25;18.30;;;3.30;94.30;;;;;;5052293;28;20056;-83
2021/04/06 04:34:18;;;;;;;28.50;16.42;;;3.40;93.80;;;;;;5052476;28;20455;-86
2021/04/06 04:36:44;;;;;;;33.03;20.42;;;3.50;93.80;;;;;;5051663;28;20021;-76
2021/04/06 04:39:09;;;;;;;28.15;17.67;;;3.50;94.10;;;;;;5052902;28;20508;-78
2021/04/06 04:41:35;;;;;;;28.63;17.20;;;3.60;93.70;;;;;;5051598;28;20478;-79
2021/04/06 04:44:01;;;;;;;26.90;17.10;;;3.70;93.80;;;;;;5052665;28;20079;-80
2021/04/06 04:46:29;;;;;;;32.55;18.38;;;3.70;93.70;;;;;;5051661;28;20017;-77
2021/04/06 04:48:56;;;;;;;26.60;17.65;;;3.70;93.70;;;;;;5051596;28;20025;-77
2021/04/06 04:51:21;;;;;;;28.60;17.25;;;3.80;93.70;;;;;;5049598;28;20025;-77
2021/04/06 04:53:47;;;;;;;25.85;17.20;;;3.80;93.80;;;;;;5051931;28;20367;-82
2021/04/06 04:56:13;;;;;;;23.15;15.65;;;3.90;93.80;;;;;;5053052;28;20021;-83
2021/04/06 04:58:38;;;;;;;27.60;16.42;;;3.90;93.60;;;;;;5051682;28;20053;-84
2021/04/06 05:01:04;;;;;;;22.35;15.52;;;4.00;93.60;;;;;;5053249;28;20033;-82
2021/04/06 05:03:30;;;;;;;29.33;16.88;;;4.00;93.50;;;;;;5051138;28;20048;-74
2021/04/06 05:05:55;;;;;;;31.70;19.73;;;4.00;93.60;;;;;;5052199;28;20049;-74
2021/04/06 05:08:21;;;;;;;23.05;16.25;;;4.10;93.40;;;;;;5052115;28;20025;-79
2021/04/06 05:10:47;;;;;;;21.30;16.02;;;4.30;93.30;;;;;;5051839;28;20029;-79
2021/04/06 05:13:13;;;;;;;26.00;16.42;;;4.30;93.10;;;;;;5051438;28;20064;-83
2021/04/06 05:15:38;;;;;;;25.17;16.10;;;4.40;93.10;;;;;;5051620;28;20073;-82
2021/04/06 05:18:04;;;;;;;27.15;17.60;;;4.50;93.10;;;;;;5051672;28;20028;-81
2021/04/06 05:20:30;;;;;;;29.98;19.10;;;4.50;93.10;;;;;;5051604;28;20107;-81
2021/04/06 05:22:56;;;;;;;23.38;15.75;;;4.60;93.10;;;;;;5053350;28;20025;-80
2021/04/06 05:25:21;;;;;;;23.38;15.30;;;4.70;93.10;;;;;;5052421;28;20021;-84
2021/04/06 05:27:47;;;;;;;23.30;15.23;;;4.80;93.10;;;;;;5053586;28;20120;-82
2021/04/06 05:30:13;;;;;;;24.25;14.70;;;4.90;92.90;;;;;;5052074;28;20028;-80
2021/04/06 05:32:39;;;;;;;27.95;14.93;;;5.00;92.80;;;;;;5053045;28;20029;-82
2021/04/06 05:35:05;;;;;;;25.73;16.25;;;5.00;92.70;;;;;;5051971;28;20399;-81
2021/04/06 05:37:31;;;;;;;25.75;15.18;;;5.10;92.70;;;;;;5053108;28;20463;-80
2021/04/06 05:39:57;;;;;;;23.15;15.18;;;5.20;92.50;;;;;;5053112;28;20104;-81
2021/04/06 05:42:24;;;;;;;27.73;15.82;;;5.30;92.40;;;;;;5051901;28;20025;-81
2021/04/06 05:44:51;;;;;;;24.33;15.82;;;5.40;92.40;;;;;;5051753;28;20021;-81
2021/04/06 05:47:25;;;;;;;23.92;16.35;;;5.40;92.20;;;;;;5052141;28;20057;-81
2021/04/06 05:49:51;;;;;;;24.23;15.82;;;5.60;92.20;;;;;;5051851;28;20025;-82
2021/04/06 05:52:17;;;;;;;21.17;14.32;;;5.70;92.20;;;;;;5051844;28;20493;-82
2021/04/06 05:54:43;;;;;;;20.73;14.60;;;5.70;92.00;;;;;;5052038;28;20032;-81
2021/04/06 05:57:09;;;;;;;19.70;13.68;;;5.80;91.80;;;;;;5051411;28;20135;-83
2021/04/06 05:59:35;;;;;;;18.42;13.52;;;5.90;91.70;;;;;;5052131;28;20031;-83
2021/04/06 06:02:01;;;;;;;21.63;13.50;;;6.00;91.60;;;;;;5051885;28;20021;-82
2021/04/06 06:04:27;;;;;;;25.10;13.20;;;6.10;91.50;;;;;;5052183;28;20033;-80
2021/04/06 06:06:53;;;;;;;22.75;13.50;;;6.20;91.40;;;;;;5055282;28;20025;-80
2021/04/06 06:09:38;;;;;;;16.63;11.95;;;6.30;91.20;;;;;;5056333;28;20053;-80
2021/04/06 06:12:09;;;;;;;19.10;13.23;;;6.40;91.10;;;;;;5055193;28;20025;-79
2021/04/06 06:14:38;;;;;;;22.77;13.18;;;6.40;91.10;;;;;;5055306;28;20128;-80
2021/04/06 06:17:16;;;;;;;18.70;12.35;;;6.50;90.90;;;;;;5055011;28;20046;-78
2021/04/06 06:19:43;;;;;;;15.80;11.10;;;6.60;90.80;;;;;;5055990;28;20032;-78
2021/04/06 06:22:31;;;;;;;18.67;13.45;;;6.60;90.80;;;;;;5054752;28;20060;-79
2021/04/06 06:25:11;;;;;;;16.63;11.88;;;6.60;90.90;;;;;;5055643;28;20033;-78
2021/04/06 06:27:39;;;;;;;18.45;12.30;;;6.70;90.90;;;;;;5054389;28;20021;-78
2021/04/06 06:30:34;;;;;;;28.33;14.02;;;6.90;91.00;;;;;;5054360;28;20368;-79
2021/04/06 06:33:14;;;;;;;18.88;12.07;;;6.90;90.80;;;;;;5056379;28;20017;-79
2021/04/06 06:35:42;;;;;;;19.02;11.90;;;7.00;90.60;;;;;;5054882;28;20425;-78
2021/04/06 06:38:43;;;;;;;19.73;12.10;;;7.10;90.60;;;;;;5054188;28;20120;-80
2021/04/06 06:41:13;;;;;;;15.52;11.80;;;7.30;90.50;;;;;;5048080;28;20063;-79
2021/04/06 06:43:44;;;;;;;16.88;11.50;;;7.30;90.70;;;;;;5055390;28;20025;-80
2021/04/06 06:46:22;;;;;;;15.80;11.32;;;7.40;90.30;;;;;;5053979;28;20356;-79
2021/04/06 06:49:01;;;;;;;14.98;10.55;;;7.50;90.40;;;;;;5055043;28;20025;-79
2021/04/06 06:51:28;;;;;;;19.92;11.02;;;7.60;90.20;;;;;;5054007;28;20028;-79
2021/04/06 06:53:55;;;;;;;22.30;12.15;;;7.60;90.00;;;;;;5054526;28;20378;-80
2021/04/06 06:56:41;;;;;;;24.63;11.45;;;7.70;90.00;;;;;;5053426;28;20025;-80
2021/04/06 06:59:10;;;;;;;18.17;11.52;;;7.70;90.00;;;;;;5054763;28;20471;-79
2021/04/06 07:01:37;;;;;;;18.50;11.23;;;7.70;90.00;;;;;;5053462;28;20393;-82
2021/04/06 07:04:13;;;;;;;24.00;11.27;;;7.80;90.00;;;;;;5055000;28;20546;-82
2021/04/06 07:06:44;;;;;;;16.13;10.88;;;7.90;90.00;;;;;;5053418;28;20025;-82
2021/04/06 07:09:25;;;;;;;18.23;11.23;;;8.00;89.80;;;;;;5053709;28;20029;-82
2021/04/06 07:11:53;;;;;;;19.60;10.65;;;8.20;89.20;;;;;;5053388;28;20029;-81
2021/04/06 07:14:23;;;;;;;18.67;11.40;;;8.30;89.30;;;;;;5053542;28;20037;-81
2021/04/06 07:16:52;;;;;;;18.38;12.23;;;8.40;88.70;;;;;;5054522;28;20033;-79
2021/04/06 07:19:20;;;;;;;15.45;10.95;;;8.50;88.50;;;;;;5053440;28;20011;-81
2021/04/06 07:21:46;;;;;;;27.55;11.68;;;8.60;88.80;;;;;;5053712;28;20459;-79
2021/04/06 07:24:18;;;;;;;16.20;11.82;;;8.70;88.10;;;;;;5054054;28;20053;-80
2021/04/06 07:26:44;;;;;;;23.98;12.70;;;8.70;88.10;;;;;;5053816;28;20460;-80
2021/04/06 07:29:10;;;;;;;15.88;10.85;;;8.80;88.10;;;;;;5054972;28;20032;-80
2021/04/06 07:31:37;;;;;;;17.50;12.05;;;8.90;87.80;;;;;;5054206;28;20428;-81
2021/04/06 07:34:08;;;;;;;16.02;11.32;;;9.10;87.40;;;;;;5053670;28;20025;-79
2021/04/06 07:36:35;;;;;;;13.98;10.68;;;9.20;87.20;;;;;;5053662;28;20029;-83
2021/04/06 07:39:06;;;;;;;12.25;10.00;;;9.30;86.80;;;;;;5053547;28;20490;-81
2021/04/06 07:41:35;;;;;;;13.02;10.10;;;9.40;86.10;;;;;;5053576;28;20132;-80
2021/04/06 07:44:03;;;;;;;13.77;10.27;;;9.40;85.80;;;;;;5053923;28;20060;-80
2021/04/06 07:46:34;;;;;;;16.52;10.95;;;9.50;85.60;;;;;;5053532;28;20031;-80
2021/04/06 07:49:06;;;;;;;13.35;10.68;;;9.50;85.10;;;;;;5053564;28;20382;-81
2021/04/06 07:51:39;;;;;;;24.10;12.32;;;9.50;85.50;;;;;;5053910;28;20025;-80
2021/04/06 07:54:21;;;;;;;18.00;12.20;;;9.50;85.40;;;;;;5037022;28;20470;-79
2021/04/06 07:57:02;;;;;;;13.75;10.65;;;9.50;85.30;;;;;;5053084;28;20114;-80
2021/04/06 07:59:28;;;;;;;15.02;11.82;;;9.60;85.40;;;;;;5054708;28;20051;-80
2021/04/06 08:01:57;;;;;;;20.98;11.32;;;9.60;85.50;;;;;;5053413;28;20021;-81
2021/04/06 08:04:47;;;;;;;17.73;10.95;;;9.80;85.60;;;;;;5053068;28;20360;-80
2021/04/06 08:07:19;;;;;;;18.90;10.38;;;9.90;85.10;;;;;;5042871;28;20461;-80
2021/04/06 08:09:54;;;;;;;16.60;11.07;;;10.10;84.80;;;;;;5052969;28;20025;-79
2021/04/06 08:12:20;;;;;;;21.80;13.35;;;10.20;83.90;;;;;;5053720;28;20025;-80
2021/04/06 08:15:08;;;;;;;15.18;9.90;;;10.20;83.60;;;;;;5052926;28;20493;-80
2021/04/06 08:17:34;;;;;;;13.75;11.20;;;10.30;83.10;;;;;;5052797;28;20382;-80
2021/04/06 08:20:18;;;;;;;12.98;10.57;;;10.30;83.00;;;;;;5052818;28;20021;-79
2021/04/06 08:22:47;;;;;;;12.45;10.13;;;10.20;82.60;;;;;;5053441;28;20025;-82
2021/04/06 08:25:16;;;;;;;12.40;10.02;;;10.30;82.90;;;;;;5052521;28;20371;-81
2021/04/06 08:28:02;;;;;;;14.68;10.70;;;10.30;83.00;;;;;;5053141;28;20024;-81
2021/04/06 08:30:34;;;;;;;13.88;10.50;;;10.50;83.00;;;;;;5052376;28;20032;-79
2021/04/06 08:33:02;;;;;;;16.15;10.85;;;10.60;82.50;;;;;;5052984;28;20033;-80
2021/04/06 08:35:49;;;;;;;15.35;10.50;;;10.60;82.40;;;;;;5053578;28;20021;-79
2021/04/06 08:38:33;;;;;;;14.25;10.52;;;10.70;81.20;;;;;;5051893;28;20067;-79
2021/04/06 08:41:10;;;;;;;16.40;11.07;;;10.90;81.30;;;;;;5051956;28;20509;-82
2021/04/06 08:43:44;;;;;;;15.23;9.70;;;10.90;80.70;;;;;;5051670;28;20021;-81
2021/04/06 08:46:47;;;;;;;17.25;10.68;;;11.10;81.40;;;;;;5051917;28;20117;-81
2021/04/06 08:49:15;;;;;;;16.55;9.98;;;11.20;80.10;;;;;;5052012;28;20028;-80
2021/04/06 08:51:42;;;;;;;17.55;9.88;;;11.40;79.60;;;;;;5052813;28;20017;-81
2021/04/06 08:54:09;;;;;;;14.38;9.10;;;11.40;79.40;;;;;;5051861;28;20017;-81
2021/04/06 08:56:37;;;;;;;11.32;9.68;;;11.50;79.10;;;;;;5051301;28;20044;-82
2021/04/06 08:59:32;;;;;;;14.60;9.75;;;11.60;78.50;;;;;;5051589;28;20500;-80
2021/04/06 09:02:03;;;;;;;12.23;8.52;;;11.60;78.50;;;;;;5051528;28;20108;-81
2021/04/06 09:04:30;;;;;;;24.25;11.40;;;11.70;78.40;;;;;;5051584;28;20060;-81
2021/04/06 09:06:57;;;;;;;11.88;8.93;;;11.70;77.40;;;;;;5051575;28;20128;-80
2021/04/06 09:09:26;;;;;;;23.67;10.23;;;11.80;77.90;;;;;;5051566;28;20024;-81
2021/04/06 09:11:53;;;;;;;18.88;10.18;;;11.90;76.10;;;;;;5051308;28;20036;-81
2021/04/06 09:14:21;;;;;;;18.00;8.52;;;12.10;75.60;;;;;;5051494;28;20115;-79
2021/04/06 09:16:49;;;;;;;11.68;8.43;;;12.10;75.10;;;;;;5051225;28;20021;-80
2021/04/06 09:19:16;;;;;;;8.82;7.28;;;12.20;74.10;;;;;;5051530;28;20036;-78
2021/04/06 09:21:48;;;;;;;13.02;7.75;;;12.20;74.20;;;;;;5051740;28;20024;-80
2021/04/06 09:24:15;;;;;;;10.00;6.97;;;12.30;73.90;;;;;;5052171;28;20028;-80
2021/04/06 09:26:43;;;;;;;11.60;7.15;;;12.30;72.50;;;;;;5052241;28;20025;-78
2021/04/06 09:29:15;;;;;;;10.93;8.48;;;12.20;73.10;;;;;;5053646;28;20104;-81
2021/04/06 09:31:49;;;;;;;13.68;9.25;;;12.30;72.20;;;;;;5053636;28;20035;-82
2021/04/06 09:34:24;;;;;;;11.38;8.52;;;12.40;70.80;;;;;;5051959;28;20028;-81
2021/04/06 09:36:59;;;;;;;16.30;8.73;;;12.50;72.10;;;;;;5052191;28;20040;-79
2021/04/06 09:39:26;;;;;;;9.15;6.60;;;12.50;70.90;;;;;;5052155;28;20029;-81
2021/04/06 09:41:52;;;;;;;11.63;6.40;;;12.50;70.60;;;;;;5057079;28;20467;-80
2021/04/06 09:44:21;;;;;;;11.00;6.53;;;12.50;70.00;;;;;;5055660;28;20608;-79
2021/04/06 09:46:59;;;;;;;9.38;6.82;;;12.50;68.90;;;;;;5055773;28;20025;-80
2021/04/06 09:49:31;;;;;;;7.35;6.18;;;12.50;69.70;;;;;;5055661;28;20075;-79
2021/04/06 09:51:56;;;;;;;8.38;5.95;;;12.50;69.60;;;;;;5055592;28;20025;-79
2021/04/06 09:54:30;;;;;;;9.15;5.60;;;12.40;69.90;;;;;;5057338;28;20079;-79
2021/04/06 09:56:57;;;;;;;6.30;5.40;;;12.30;69.00;;;;;;5056373;28;20057;-78
2021/04/06 09:59:23;;;;;;;13.10;6.10;;;12.30;68.10;;;;;;5055524;28;20021;-81
2021/04/06 10:01:51;;;;;;;10.48;5.28;;;12.20;67.30;;;;;;5055337;28;20052;-79
2021/04/06 10:04:41;;;;;;;7.20;5.60;;;12.30;68.40;;;;;;5056685;28;20027;-78
2021/04/06 10:07:18;;;;;;;10.98;6.43;;;12.50;66.40;;;;;;5055620;28;20021;-81
2021/04/06 10:10:03;;;;;;;12.70;6.78;;;12.60;65.70;;;;;;5055401;28;20116;-81
2021/04/06 10:12:31;;;;;;;7.15;5.47;;;12.70;64.40;;;;;;5055408;28;20025;-80
2021/04/06 10:14:58;;;;;;;7.55;5.32;;;12.80;64.70;;;;;;5055190;28;20027;-79
2021/04/06 10:17:37;;;;;;;6.60;5.50;;;12.80;64.20;;;;;;5055002;28;20072;-79
2021/04/06 10:20:11;;;;;;;9.40;6.40;;;12.90;64.90;;;;;;5054990;28;20049;-81
2021/04/06 10:22:57;;;;;;;13.30;6.90;;;13.00;63.30;;;;;;5054443;28;20103;-81
2021/04/06 10:25:26;;;;;;;9.90;5.50;;;13.00;62.10;;;;;;5054358;28;20022;-78
2021/04/06 10:27:54;;;;;;;6.97;5.60;;;13.10;62.80;;;;;;5055782;28;20036;-79
2021/04/06 10:30:38;;;;;;;13.77;5.00;;;13.20;62.30;;;;;;5054823;28;20028;-79
2021/04/06 10:33:11;;;;;;;8.23;5.60;;;13.10;61.90;;;;;;5054818;28;20021;-80
2021/04/06 10:35:43;;;;;;;9.80;5.10;;;13.10;63.70;;;;;;5055860;28;20037;-79
2021/04/06 10:38:23;;;;;;;5.65;4.90;;;13.20;62.60;;;;;;5055458;28;20158;-80
2021/04/06 10:41:12;;;;;;;7.93;5.40;;;13.40;61.30;;;;;;5054224;28;20053;-80
2021/04/06 10:43:49;;;;;;;10.30;4.63;;;13.40;60.60;;;;;;5055223;28;20033;-81
2021/04/06 10:46:22;;;;;;;7.38;4.88;;;13.40;60.20;;;;;;5054051;28;20079;-81
2021/04/06 10:49:00;;;;;;;8.57;4.68;;;13.40;60.30;;;;;;5055733;28;20021;-81
2021/04/06 10:51:26;;;;;;;6.32;4.50;;;13.40;61.00;;;;;;5053769;28;20059;-80
2021/04/06 10:53:58;;;;;;;7.47;4.18;;;13.40;60.20;;;;;;5053950;28;20025;-79
2021/04/06 10:56:44;;;;;;;12.57;5.38;;;13.50;59.80;;;;;;5054835;28;20517;-81
2021/04/06 10:59:12;;;;;;;12.65;5.55;;;13.40;58.60;;;;;;5053955;28;20056;-81
2021/04/06 11:01:43;;;;;;;10.95;4.53;;;13.40;58.90;;;;;;5053709;28;20356;-80
2021/04/06 11:04:21;;;;;;;13.20;4.85;;;13.50;59.80;;;;;;5053717;28;20021;-79
2021/04/06 11:07:00;;;;;;;13.88;4.45;;;13.50;58.30;;;;;;5053579;28;20025;-80
2021/04/06 11:09:38;;;;;;;7.22;4.30;;;13.40;58.00;;;;;;5054990;28;20025;-81
2021/04/06 11:12:06;;;;;;;6.50;4.25;;;13.40;58.70;;;;;;5053464;28;20017;-81
2021/04/06 11:14:32;;;;;;;4.10;3.70;;;13.50;59.40;;;;;;5053361;28;20353;-79
2021/04/06 11:17:04;;;;;;;4.95;3.70;;;13.70;59.50;;;;;;5053142;28;20032;-81
2021/04/06 11:19:35;;;;;;;7.72;3.80;;;13.80;58.50;;;;;;5054380;28;20021;-79
2021/04/06 11:22:08;;;;;;;5.63;3.55;;;13.90;57.80;;;;;;5036973;28;20116;-81
2021/04/06 11:24:35;;;;;;;4.30;3.22;;;13.90;57.40;;;;;;5055204;28;20045;-80
2021/04/06 11:27:03;;;;;;;6.05;3.53;;;13.90;57.90;;;;;;5037566;28;20036;-80
2021/04/06 11:29:31;;;;;;;11.57;4.60;;;14.00;58.10;;;;;;5055051;28;20021;-81
2021/04/06 11:32:00;;;;;;;6.57;3.50;;;13.80;57.40;;;;;;5053774;28;20024;-80
2021/04/06 11:34:27;;;;;;;7.20;4.30;;;13.90;57.70;;;;;;5053642;28;20025;-80
2021/04/06 11:36:53;;;;;;;7.18;3.83;;;13.80;58.20;;;;;;5054852;28;20029;-80
2021/04/06 11:39:20;;;;;;;4.80;3.63;;;13.80;58.70;;;;;;5054744;28;20431;-80
2021/04/06 11:41:48;;;;;;;7.57;4.00;;;13.90;58.50;;;;;;5053577;28;20162;-80
2021/04/06 11:44:15;;;;;;;4.72;4.20;;;13.90;57.70;;;;;;5054795;28;20022;-80
2021/04/06 11:46:42;;;;;;;5.57;4.32;;;14.00;58.30;;;;;;5054779;28;20063;-81
2021/04/06 11:49:09;;;;;;;6.68;4.38;;;14.00;58.10;;;;;;5053383;28;20025;-81
2021/04/06 11:51:37;;;;;;;6.00;3.90;;;14.00;58.50;;;;;;5053323;28;20033;-80
2021/04/06 11:54:04;;;;;;;8.82;3.97;;;14.10;58.10;;;;;;5054536;28;20102;-80
2021/04/06 11:56:30;;;;;;;6.32;4.38;;;14.20;58.80;;;;;;5053433;28;20025;-81
2021/04/06 11:58:55;;;;;;;12.50;3.95;;;14.30;59.40;;;;;;5052999;28;20025;-81
2021/04/06 12:01:21;;;;;;;14.10;4.25;;;14.20;58.10;;;;;;5053369;28;20025;-80
2021/04/06 12:03:47;;;;;;;7.32;3.90;;;14.20;58.40;;;;;;5052405;28;20025;-80
2021/04/06 12:06:13;;;;;;;9.13;3.70;;;14.10;58.50;;;;;;5053304;28;20446;-79
2021/04/06 12:08:41;;;;;;;10.27;3.75;;;14.10;58.50;;;;;;5053094;28;20025;-80
2021/04/06 12:11:07;;;;;;;13.70;3.38;;;14.10;58.40;;;;;;5053094;28;20390;-81
2021/04/06 12:13:33;;;;;;;9.20;3.83;;;14.10;57.90;;;;;;5052982;28;20031;-78
2021/04/06 12:15:59;;;;;;;6.85;4.35;;;14.10;58.00;;;;;;5051869;28;20112;-80
2021/04/06 12:18:26;;;;;;;10.00;3.50;;;14.00;58.70;;;;;;5051877;28;20112;-80
2021/04/06 12:20:52;;;;;;;6.60;3.70;;;14.20;58.40;;;;;;5054134;28;20025;-81
2021/04/06 12:23:17;;;;;;;6.15;3.88;;;14.40;57.90;;;;;;5051543;28;20094;-79
2021/04/06 12:25:43;;;;;;;4.68;3.30;;;14.50;56.80;;;;;;5051019;28;20025;-79
2021/04/06 12:28:09;;;;;;;6.28;3.22;;;14.50;56.50;;;;;;5052206;28;20033;-88
2021/04/06 12:30:35;;;;;;;4.47;3.40;;;14.60;55.80;;;;;;5052015;28;20067;-80
2021/04/06 12:33:01;;;;;;;6.78;3.08;;;14.50;55.20;;;;;;5052639;28;20024;-80
2021/04/06 12:35:28;;;;;;;8.88;4.05;;;14.50;55.90;;;;;;5052899;28;20032;-80
2021/04/06 12:37:53;;;;;;;5.15;3.03;;;14.50;56.50;;;;;;5052065;28;20029;-79
2021/04/06 12:40:19;;;;;;;4.85;2.83;;;14.70;55.20;;;;;;5051187;28;20387;-79
2021/04/06 12:42:45;;;;;;;4.20;2.70;;;14.80;55.20;;;;;;5050824;28;20382;-79
2021/04/06 12:45:14;;;;;;;4.53;2.97;;;14.80;54.70;;;;;;5051779;28;20029;-80
2021/04/06 12:47:40;;;;;;;8.35;3.60;;;14.80;54.90;;;;;;5052161;28;20493;-80
2021/04/06 12:50:07;;;;;;;8.40;3.95;;;14.70;55.30;;;;;;5050814;28;20033;-81
2021/04/06 12:52:32;;;;;;;9.77;3.85;;;14.60;54.90;;;;;;5052136;28;20029;-79
2021/04/06 12:54:58;;;;;;;6.72;2.90;;;14.50;55.20;;;;;;5051822;28;20032;-80
2021/04/06 12:57:24;;;;;;;11.02;3.08;;;14.30;55.20;;;;;;5051443;28;20503;-81